sensor_id;sensor_type;location;lat;lon;timestamp;P1;durP1;ratioP1;P2;durP2;ratioP2
12556;SDS011;6344;49.932;8.308;2023-03-01T00:00:43;18.93;;;15.03;;
12556;SDS011;6344;49.932;8.308;2023-03-01T00:03:11;18.77;;;14.60;;
12556;SDS011;6344;49.932;8.308;2023-03-01T00:05:43;15.55;;;13.88;;
12556;SDS011;6344;49.932;8.308;2023-03-01T00:08:10;18.30;;;15.73;;
12556;SDS011;6344;49.932;8.308;2023-03-01T00:10:36;18.80;;;14.93;;
12556;SDS011;6344;49.932;8.308;2023-03-01T00:13:04;17.60;;;13.50;;
12556;SDS011;6344;49.932;8.308;2023-03-01T00:15:31;22.20;;;15.90;;
12556;SDS011;6344;49.932;8.308;2023-03-01T00:17:59;18.88;;;15.50;;
12556;SDS011;6344;49.932;8.308;2023-03-01T00:20:26;23.60;;;16.95;;
12556;SDS011;6344;49.932;8.308;2023-03-01T00:22:53;18.23;;;15.70;;
12556;SDS011;6344;49.932;8.308;2023-03-01T00:25:19;18.50;;;14.70;;
12556;SDS011;6344;49.932;8.308;2023-03-01T00:27:46;24.45;;;15.10;;
12556;SDS011;6344;49.932;8.308;2023-03-01T00:30:15;22.33;;;16.38;;
12556;SDS011;6344;49.932;8.308;2023-03-01T00:32:42;19.35;;;14.85;;
12556;SDS011;6344;49.932;8.308;2023-03-01T00:35:09;18.65;;;15.50;;
12556;SDS011;6344;49.932;8.308;2023-03-01T00:37:35;23.13;;;16.27;;
12556;SDS011;6344;49.932;8.308;2023-03-01T00:40:02;19.10;;;14.65;;
12556;SDS011;6344;49.932;8.308;2023-03-01T00:42:31;18.20;;;15.65;;
12556;SDS011;6344;49.932;8.308;2023-03-01T00:44:57;20.73;;;14.70;;
12556;SDS011;6344;49.932;8.308;2023-03-01T00:47:25;18.42;;;16.17;;
12556;SDS011;6344;49.932;8.308;2023-03-01T00:49:55;22.30;;;14.98;;
12556;SDS011;6344;49.932;8.308;2023-03-01T00:52:22;21.17;;;15.40;;
12556;SDS011;6344;49.932;8.308;2023-03-01T00:54:51;23.92;;;17.20;;
12556;SDS011;6344;49.932;8.308;2023-03-01T00:57:18;20.98;;;16.38;;
12556;SDS011;6344;49.932;8.308;2023-03-01T00:59:45;23.40;;;16.88;;
12556;SDS011;6344;49.932;8.308;2023-03-01T01:02:11;19.42;;;16.15;;
12556;SDS011;6344;49.932;8.308;2023-03-01T01:04:39;20.52;;;16.65;;
12556;SDS011;6344;49.932;8.308;2023-03-01T01:07:06;22.52;;;15.88;;
12556;SDS011;6344;49.932;8.308;2023-03-01T01:09:33;22.07;;;17.00;;
12556;SDS011;6344;49.932;8.308;2023-03-01T01:11:59;20.00;;;16.40;;
12556;SDS011;6344;49.932;8.308;2023-03-01T01:14:26;21.80;;;16.57;;
12556;SDS011;6344;49.932;8.308;2023-03-01T01:16:53;22.13;;;15.90;;
12556;SDS011;6344;49.932;8.308;2023-03-01T01:19:19;20.63;;;15.43;;
12556;SDS011;6344;49.932;8.308;2023-03-01T01:21:47;18.30;;;14.00;;
12556;SDS011;6344;49.932;8.308;2023-03-01T01:24:14;19.42;;;15.38;;
12556;SDS011;6344;49.932;8.308;2023-03-01T01:26:42;22.30;;;15.60;;
12556;SDS011;6344;49.932;8.308;2023-03-01T01:29:09;18.13;;;15.03;;
12556;SDS011;6344;49.932;8.308;2023-03-01T01:31:37;18.93;;;15.73;;
12556;SDS011;6344;49.932;8.308;2023-03-01T01:34:05;17.70;;;14.67;;
12556;SDS011;6344;49.932;8.308;2023-03-01T01:36:33;21.67;;;14.53;;
12556;SDS011;6344;49.932;8.308;2023-03-01T01:39:03;19.27;;;16.47;;
12556;SDS011;6344;49.932;8.308;2023-03-01T01:41:30;27.53;;;16.83;;
12556;SDS011;6344;49.932;8.308;2023-03-01T01:44:13;22.43;;;16.20;;
12556;SDS011;6344;49.932;8.308;2023-03-01T01:46:46;21.70;;;16.47;;
12556;SDS011;6344;49.932;8.308;2023-03-01T01:49:17;20.60;;;15.83;;
12556;SDS011;6344;49.932;8.308;2023-03-01T01:51:49;19.50;;;15.50;;
12556;SDS011;6344;49.932;8.308;2023-03-01T01:54:25;23.00;;;16.40;;
12556;SDS011;6344;49.932;8.308;2023-03-01T01:56:56;20.93;;;14.50;;
12556;SDS011;6344;49.932;8.308;2023-03-01T01:59:28;19.43;;;15.40;;
12556;SDS011;6344;49.932;8.308;2023-03-01T02:01:56;21.70;;;15.53;;
12556;SDS011;6344;49.932;8.308;2023-03-01T02:04:25;20.10;;;15.90;;
12556;SDS011;6344;49.932;8.308;2023-03-01T02:06:53;22.80;;;16.60;;
12556;SDS011;6344;49.932;8.308;2023-03-01T02:09:24;21.50;;;17.40;;
12556;SDS011;6344;49.932;8.308;2023-03-01T02:11:52;17.95;;;14.43;;
12556;SDS011;6344;49.932;8.308;2023-03-01T02:14:20;20.40;;;16.60;;
12556;SDS011;6344;49.932;8.308;2023-03-01T02:16:46;20.00;;;14.90;;
12556;SDS011;6344;49.932;8.308;2023-03-01T02:19:15;21.40;;;16.17;;
12556;SDS011;6344;49.932;8.308;2023-03-01T02:21:50;18.10;;;14.20;;
12556;SDS011;6344;49.932;8.308;2023-03-01T02:24:28;21.53;;;16.20;;
12556;SDS011;6344;49.932;8.308;2023-03-01T02:27:06;19.38;;;15.95;;
12556;SDS011;6344;49.932;8.308;2023-03-01T02:29:34;19.15;;;16.40;;
12556;SDS011;6344;49.932;8.308;2023-03-01T02:32:01;17.07;;;13.70;;
12556;SDS011;6344;49.932;8.308;2023-03-01T02:34:28;19.10;;;15.13;;
12556;SDS011;6344;49.932;8.308;2023-03-01T02:36:59;18.00;;;16.07;;
12556;SDS011;6344;49.932;8.308;2023-03-01T02:39:30;20.30;;;14.70;;
12556;SDS011;6344;49.932;8.308;2023-03-01T02:48:44;17.97;;;13.97;;
12556;SDS011;6344;49.932;8.308;2023-03-01T02:54:05;19.27;;;15.97;;
12556;SDS011;6344;49.932;8.308;2023-03-01T02:56:36;20.63;;;15.83;;
12556;SDS011;6344;49.932;8.308;2023-03-01T02:59:03;22.13;;;16.33;;
12556;SDS011;6344;49.932;8.308;2023-03-01T03:01:30;20.57;;;16.77;;
12556;SDS011;6344;49.932;8.308;2023-03-01T03:04:04;20.77;;;17.60;;
12556;SDS011;6344;49.932;8.308;2023-03-01T03:06:31;22.50;;;16.87;;
12556;SDS011;6344;49.932;8.308;2023-03-01T03:08:58;19.87;;;16.30;;
12556;SDS011;6344;49.932;8.308;2023-03-01T03:11:25;19.57;;;16.20;;
12556;SDS011;6344;49.932;8.308;2023-03-01T03:13:52;20.37;;;18.10;;
12556;SDS011;6344;49.932;8.308;2023-03-01T03:16:19;24.00;;;16.50;;
12556;SDS011;6344;49.932;8.308;2023-03-01T03:18:46;21.77;;;17.13;;
12556;SDS011;6344;49.932;8.308;2023-03-01T03:21:14;20.70;;;16.20;;
12556;SDS011;6344;49.932;8.308;2023-03-01T03:23:42;21.80;;;16.60;;
12556;SDS011;6344;49.932;8.308;2023-03-01T03:26:08;20.20;;;16.50;;
12556;SDS011;6344;49.932;8.308;2023-03-01T03:28:38;20.37;;;15.97;;
12556;SDS011;6344;49.932;8.308;2023-03-01T03:31:06;21.70;;;14.93;;
12556;SDS011;6344;49.932;8.308;2023-03-01T03:33:33;23.70;;;15.50;;
12556;SDS011;6344;49.932;8.308;2023-03-01T03:36:00;16.45;;;14.00;;
12556;SDS011;6344;49.932;8.308;2023-03-01T03:38:28;18.70;;;14.37;;
12556;SDS011;6344;49.932;8.308;2023-03-01T03:40:59;21.30;;;14.60;;
12556;SDS011;6344;49.932;8.308;2023-03-01T03:43:27;19.07;;;15.13;;
12556;SDS011;6344;49.932;8.308;2023-03-01T03:45:54;22.60;;;16.27;;
12556;SDS011;6344;49.932;8.308;2023-03-01T03:48:23;20.07;;;15.63;;
12556;SDS011;6344;49.932;8.308;2023-03-01T03:50:51;19.97;;;16.30;;
12556;SDS011;6344;49.932;8.308;2023-03-01T03:53:19;19.90;;;15.50;;
12556;SDS011;6344;49.932;8.308;2023-03-01T03:55:49;20.90;;;15.83;;
12556;SDS011;6344;49.932;8.308;2023-03-01T03:58:16;19.17;;;15.80;;
12556;SDS011;6344;49.932;8.308;2023-03-01T04:00:45;21.27;;;19.03;;
12556;SDS011;6344;49.932;8.308;2023-03-01T04:03:13;23.67;;;16.93;;
12556;SDS011;6344;49.932;8.308;2023-03-01T04:05:41;18.93;;;15.80;;
12556;SDS011;6344;49.932;8.308;2023-03-01T04:08:08;21.00;;;15.73;;
12556;SDS011;6344;49.932;8.308;2023-03-01T04:10:36;19.77;;;15.70;;
12556;SDS011;6344;49.932;8.308;2023-03-01T04:13:05;19.47;;;14.23;;
12556;SDS011;6344;49.932;8.308;2023-03-01T04:15:34;12.80;;;10.50;;
12556;SDS011;6344;49.932;8.308;2023-03-01T04:18:01;18.60;;;16.00;;
12556;SDS011;6344;49.932;8.308;2023-03-01T04:20:30;19.70;;;14.70;;
12556;SDS011;6344;49.932;8.308;2023-03-01T04:23:00;18.40;;;13.30;;
12556;SDS011;6344;49.932;8.308;2023-03-01T04:25:35;23.43;;;15.20;;
12556;SDS011;6344;49.932;8.308;2023-03-01T04:28:04;21.50;;;15.97;;
12556;SDS011;6344;49.932;8.308;2023-03-01T04:30:31;24.40;;;16.60;;
12556;SDS011;6344;49.932;8.308;2023-03-01T04:33:01;20.50;;;16.63;;
12556;SDS011;6344;49.932;8.308;2023-03-01T04:35:29;20.30;;;16.27;;
12556;SDS011;6344;49.932;8.308;2023-03-01T04:37:56;16.10;;;13.50;;
12556;SDS011;6344;49.932;8.308;2023-03-01T04:40:23;23.40;;;16.50;;
12556;SDS011;6344;49.932;8.308;2023-03-01T04:42:50;20.93;;;17.43;;
12556;SDS011;6344;49.932;8.308;2023-03-01T04:45:18;26.60;;;18.93;;
12556;SDS011;6344;49.932;8.308;2023-03-01T04:47:45;28.30;;;18.27;;
12556;SDS011;6344;49.932;8.308;2023-03-01T04:50:14;21.97;;;17.23;;
12556;SDS011;6344;49.932;8.308;2023-03-01T04:52:42;23.90;;;18.20;;
12556;SDS011;6344;49.932;8.308;2023-03-01T04:55:09;24.10;;;18.17;;
12556;SDS011;6344;49.932;8.308;2023-03-01T04:57:36;22.70;;;17.40;;
12556;SDS011;6344;49.932;8.308;2023-03-01T05:00:03;23.87;;;18.77;;
12556;SDS011;6344;49.932;8.308;2023-03-01T05:02:46;23.83;;;17.70;;
12556;SDS011;6344;49.932;8.308;2023-03-01T05:05:18;27.77;;;18.77;;
12556;SDS011;6344;49.932;8.308;2023-03-01T05:07:45;28.57;;;19.27;;
12556;SDS011;6344;49.932;8.308;2023-03-01T05:10:12;26.10;;;19.03;;
12556;SDS011;6344;49.932;8.308;2023-03-01T05:12:39;21.83;;;17.13;;
12556;SDS011;6344;49.932;8.308;2023-03-01T05:15:06;29.05;;;19.98;;
12556;SDS011;6344;49.932;8.308;2023-03-01T05:17:33;26.10;;;19.57;;
12556;SDS011;6344;49.932;8.308;2023-03-01T05:20:01;22.77;;;17.97;;
12556;SDS011;6344;49.932;8.308;2023-03-01T05:22:32;22.90;;;17.77;;
12556;SDS011;6344;49.932;8.308;2023-03-01T05:24:59;25.20;;;17.95;;
12556;SDS011;6344;49.932;8.308;2023-03-01T05:27:26;27.60;;;20.15;;
12556;SDS011;6344;49.932;8.308;2023-03-01T05:29:52;29.65;;;19.48;;
12556;SDS011;6344;49.932;8.308;2023-03-01T05:32:19;23.25;;;17.25;;
12556;SDS011;6344;49.932;8.308;2023-03-01T05:34:46;22.35;;;18.25;;
12556;SDS011;6344;49.932;8.308;2023-03-01T05:37:14;23.45;;;18.65;;
12556;SDS011;6344;49.932;8.308;2023-03-01T05:39:40;28.60;;;20.13;;
12556;SDS011;6344;49.932;8.308;2023-03-01T05:42:09;24.13;;;18.73;;
12556;SDS011;6344;49.932;8.308;2023-03-01T05:44:37;23.52;;;19.30;;
12556;SDS011;6344;49.932;8.308;2023-03-01T05:47:04;24.30;;;19.23;;
12556;SDS011;6344;49.932;8.308;2023-03-01T05:49:31;26.50;;;18.87;;
12556;SDS011;6344;49.932;8.308;2023-03-01T05:51:58;25.20;;;19.53;;
12556;SDS011;6344;49.932;8.308;2023-03-01T05:54:26;25.27;;;19.10;;
12556;SDS011;6344;49.932;8.308;2023-03-01T05:56:52;22.58;;;19.40;;
12556;SDS011;6344;49.932;8.308;2023-03-01T05:59:19;25.23;;;20.63;;
12556;SDS011;6344;49.932;8.308;2023-03-01T06:01:46;27.20;;;19.85;;
12556;SDS011;6344;49.932;8.308;2023-03-01T06:04:12;26.13;;;19.00;;
12556;SDS011;6344;49.932;8.308;2023-03-01T06:06:39;26.77;;;20.13;;
12556;SDS011;6344;49.932;8.308;2023-03-01T06:09:06;26.70;;;19.70;;
12556;SDS011;6344;49.932;8.308;2023-03-01T06:11:36;28.60;;;18.93;;
12556;SDS011;6344;49.932;8.308;2023-03-01T06:14:03;24.13;;;18.73;;
12556;SDS011;6344;49.932;8.308;2023-03-01T06:16:31;24.43;;;17.63;;
12556;SDS011;6344;49.932;8.308;2023-03-01T06:18:57;25.27;;;19.63;;
12556;SDS011;6344;49.932;8.308;2023-03-01T06:21:24;23.55;;;18.38;;
12556;SDS011;6344;49.932;8.308;2023-03-01T06:23:51;28.33;;;19.80;;
12556;SDS011;6344;49.932;8.308;2023-03-01T06:26:17;24.88;;;20.20;;
12556;SDS011;6344;49.932;8.308;2023-03-01T06:28:46;29.20;;;18.67;;
12556;SDS011;6344;49.932;8.308;2023-03-01T06:31:12;23.93;;;18.53;;
12556;SDS011;6344;49.932;8.308;2023-03-01T06:33:39;22.17;;;18.37;;
12556;SDS011;6344;49.932;8.308;2023-03-01T06:36:07;22.03;;;17.73;;
12556;SDS011;6344;49.932;8.308;2023-03-01T06:38:35;10.90;;;9.73;;
12556;SDS011;6344;49.932;8.308;2023-03-01T06:41:01;23.17;;;17.53;;
12556;SDS011;6344;49.932;8.308;2023-03-01T06:43:28;17.47;;;11.40;;
12556;SDS011;6344;49.932;8.308;2023-03-01T06:45:56;25.70;;;18.63;;
12556;SDS011;6344;49.932;8.308;2023-03-01T06:48:23;24.27;;;17.27;;
12556;SDS011;6344;49.932;8.308;2023-03-01T06:50:49;17.83;;;11.47;;
12556;SDS011;6344;49.932;8.308;2023-03-01T06:53:16;20.87;;;15.50;;
12556;SDS011;6344;49.932;8.308;2023-03-01T06:55:42;20.63;;;15.07;;
12556;SDS011;6344;49.932;8.308;2023-03-01T06:58:09;19.10;;;15.50;;
12556;SDS011;6344;49.932;8.308;2023-03-01T07:00:36;23.43;;;13.87;;
12556;SDS011;6344;49.932;8.308;2023-03-01T07:03:07;22.83;;;17.23;;
12556;SDS011;6344;49.932;8.308;2023-03-01T07:05:34;21.43;;;15.80;;
12556;SDS011;6344;49.932;8.308;2023-03-01T07:08:01;16.37;;;13.83;;
12556;SDS011;6344;49.932;8.308;2023-03-01T07:10:28;13.53;;;10.50;;
12556;SDS011;6344;49.932;8.308;2023-03-01T07:12:55;22.03;;;15.33;;
12556;SDS011;6344;49.932;8.308;2023-03-01T07:15:22;22.40;;;15.50;;
12556;SDS011;6344;49.932;8.308;2023-03-01T07:17:49;19.07;;;15.00;;
12556;SDS011;6344;49.932;8.308;2023-03-01T07:20:17;23.53;;;17.07;;
12556;SDS011;6344;49.932;8.308;2023-03-01T07:22:47;22.80;;;15.80;;
12556;SDS011;6344;49.932;8.308;2023-03-01T07:25:14;14.47;;;11.53;;
12556;SDS011;6344;49.932;8.308;2023-03-01T07:27:40;21.00;;;12.70;;
12556;SDS011;6344;49.932;8.308;2023-03-01T07:30:07;23.83;;;16.60;;
12556;SDS011;6344;49.932;8.308;2023-03-01T07:32:35;22.80;;;18.57;;
12556;SDS011;6344;49.932;8.308;2023-03-01T07:35:01;16.40;;;10.57;;
12556;SDS011;6344;49.932;8.308;2023-03-01T07:37:30;23.70;;;17.17;;
12556;SDS011;6344;49.932;8.308;2023-03-01T07:39:56;24.97;;;17.73;;
12556;SDS011;6344;49.932;8.308;2023-03-01T07:42:23;26.33;;;15.43;;
12556;SDS011;6344;49.932;8.308;2023-03-01T07:44:49;17.50;;;11.43;;
12556;SDS011;6344;49.932;8.308;2023-03-01T07:47:16;19.93;;;10.50;;
12556;SDS011;6344;49.932;8.308;2023-03-01T07:49:43;20.53;;;16.23;;
12556;SDS011;6344;49.932;8.308;2023-03-01T07:52:10;30.30;;;16.60;;
12556;SDS011;6344;49.932;8.308;2023-03-01T07:54:38;23.63;;;13.50;;
12556;SDS011;6344;49.932;8.308;2023-03-01T07:57:05;18.03;;;11.53;;
12556;SDS011;6344;49.932;8.308;2023-03-01T07:59:31;15.83;;;13.97;;
12556;SDS011;6344;49.932;8.308;2023-03-01T08:01:58;28.90;;;18.23;;
12556;SDS011;6344;49.932;8.308;2023-03-01T08:04:25;22.57;;;16.93;;
12556;SDS011;6344;49.932;8.308;2023-03-01T08:06:52;23.37;;;18.67;;
12556;SDS011;6344;49.932;8.308;2023-03-01T08:09:18;15.13;;;13.47;;
12556;SDS011;6344;49.932;8.308;2023-03-01T08:11:46;25.80;;;19.13;;
12556;SDS011;6344;49.932;8.308;2023-03-01T08:14:13;19.70;;;14.37;;
12556;SDS011;6344;49.932;8.308;2023-03-01T08:16:40;16.30;;;11.70;;
12556;SDS011;6344;49.932;8.308;2023-03-01T08:19:07;17.83;;;13.60;;
12556;SDS011;6344;49.932;8.308;2023-03-01T08:21:35;12.37;;;9.57;;
12556;SDS011;6344;49.932;8.308;2023-03-01T08:24:02;15.83;;;14.13;;
12556;SDS011;6344;49.932;8.308;2023-03-01T08:26:30;14.33;;;9.40;;
12556;SDS011;6344;49.932;8.308;2023-03-01T08:28:59;22.90;;;18.53;;
12556;SDS011;6344;49.932;8.308;2023-03-01T08:31:27;16.33;;;11.13;;
12556;SDS011;6344;49.932;8.308;2023-03-01T08:33:56;18.20;;;9.67;;
12556;SDS011;6344;49.932;8.308;2023-03-01T08:36:25;12.27;;;9.40;;
12556;SDS011;6344;49.932;8.308;2023-03-01T08:38:53;18.57;;;16.57;;
12556;SDS011;6344;49.932;8.308;2023-03-01T08:41:20;14.87;;;13.27;;
12556;SDS011;6344;49.932;8.308;2023-03-01T08:43:47;23.40;;;16.30;;
12556;SDS011;6344;49.932;8.308;2023-03-01T08:46:15;15.93;;;14.17;;
12556;SDS011;6344;49.932;8.308;2023-03-01T08:48:42;20.23;;;10.93;;
12556;SDS011;6344;49.932;8.308;2023-03-01T08:51:09;12.63;;;10.20;;
12556;SDS011;6344;49.932;8.308;2023-03-01T08:53:37;14.07;;;6.80;;
12556;SDS011;6344;49.932;8.308;2023-03-01T08:56:04;15.43;;;12.50;;
12556;SDS011;6344;49.932;8.308;2023-03-01T08:58:31;18.40;;;16.40;;
12556;SDS011;6344;49.932;8.308;2023-03-01T09:00:58;15.00;;;10.43;;
12556;SDS011;6344;49.932;8.308;2023-03-01T09:03:26;15.27;;;12.00;;
12556;SDS011;6344;49.932;8.308;2023-03-01T09:05:53;16.30;;;12.77;;
12556;SDS011;6344;49.932;8.308;2023-03-01T09:08:26;13.43;;;11.40;;
12556;SDS011;6344;49.932;8.308;2023-03-01T09:10:53;19.23;;;13.80;;
12556;SDS011;6344;49.932;8.308;2023-03-01T09:13:20;16.97;;;11.80;;
12556;SDS011;6344;49.932;8.308;2023-03-01T09:15:48;16.40;;;13.40;;
12556;SDS011;6344;49.932;8.308;2023-03-01T09:18:15;11.20;;;7.93;;
12556;SDS011;6344;49.932;8.308;2023-03-01T09:20:43;14.53;;;9.67;;
12556;SDS011;6344;49.932;8.308;2023-03-01T09:23:10;12.53;;;10.47;;
12556;SDS011;6344;49.932;8.308;2023-03-01T09:25:36;20.00;;;17.07;;
12556;SDS011;6344;49.932;8.308;2023-03-01T09:28:03;18.60;;;14.13;;
12556;SDS011;6344;49.932;8.308;2023-03-01T09:30:30;13.17;;;10.10;;
12556;SDS011;6344;49.932;8.308;2023-03-01T09:32:56;19.13;;;15.23;;
12556;SDS011;6344;49.932;8.308;2023-03-01T09:35:23;14.07;;;10.13;;
12556;SDS011;6344;49.932;8.308;2023-03-01T09:37:51;19.13;;;11.43;;
12556;SDS011;6344;49.932;8.308;2023-03-01T09:40:19;20.17;;;14.10;;
12556;SDS011;6344;49.932;8.308;2023-03-01T09:42:49;16.50;;;11.23;;
12556;SDS011;6344;49.932;8.308;2023-03-01T09:45:23;11.93;;;10.00;;
12556;SDS011;6344;49.932;8.308;2023-03-01T09:47:54;16.30;;;12.37;;
12556;SDS011;6344;49.932;8.308;2023-03-01T09:50:22;13.70;;;12.40;;
12556;SDS011;6344;49.932;8.308;2023-03-01T09:53:00;18.30;;;13.20;;
12556;SDS011;6344;49.932;8.308;2023-03-01T09:55:30;14.93;;;10.77;;
12556;SDS011;6344;49.932;8.308;2023-03-01T09:58:00;16.60;;;12.90;;
12556;SDS011;6344;49.932;8.308;2023-03-01T10:00:36;19.37;;;16.20;;
12556;SDS011;6344;49.932;8.308;2023-03-01T10:03:12;16.83;;;14.40;;
12556;SDS011;6344;49.932;8.308;2023-03-01T10:05:44;16.80;;;15.07;;
12556;SDS011;6344;49.932;8.308;2023-03-01T10:08:25;15.70;;;14.00;;
12556;SDS011;6344;49.932;8.308;2023-03-01T10:10:56;18.47;;;14.07;;
12556;SDS011;6344;49.932;8.308;2023-03-01T10:13:23;15.30;;;13.60;;
12556;SDS011;6344;49.932;8.308;2023-03-01T10:15:54;13.83;;;12.40;;
12556;SDS011;6344;49.932;8.308;2023-03-01T10:18:23;22.50;;;15.20;;
12556;SDS011;6344;49.932;8.308;2023-03-01T10:20:53;13.67;;;9.57;;
12556;SDS011;6344;49.932;8.308;2023-03-01T10:23:25;20.73;;;17.70;;
12556;SDS011;6344;49.932;8.308;2023-03-01T10:26:01;20.43;;;14.27;;
12556;SDS011;6344;49.932;8.308;2023-03-01T10:28:37;20.60;;;14.97;;
12556;SDS011;6344;49.932;8.308;2023-03-01T10:31:11;13.77;;;12.30;;
12556;SDS011;6344;49.932;8.308;2023-03-01T10:33:40;18.97;;;15.30;;
12556;SDS011;6344;49.932;8.308;2023-03-01T10:36:07;15.33;;;12.77;;
12556;SDS011;6344;49.932;8.308;2023-03-01T10:38:48;15.10;;;11.83;;
12556;SDS011;6344;49.932;8.308;2023-03-01T10:41:17;17.70;;;14.50;;
12556;SDS011;6344;49.932;8.308;2023-03-01T10:43:44;13.80;;;9.90;;
12556;SDS011;6344;49.932;8.308;2023-03-01T10:46:22;20.63;;;18.13;;
12556;SDS011;6344;49.932;8.308;2023-03-01T10:49:05;19.10;;;16.20;;
12556;SDS011;6344;49.932;8.308;2023-03-01T10:51:34;18.37;;;11.87;;
12556;SDS011;6344;49.932;8.308;2023-03-01T10:54:02;16.13;;;14.50;;
12556;SDS011;6344;49.932;8.308;2023-03-01T10:56:48;11.07;;;9.90;;
12556;SDS011;6344;49.932;8.308;2023-03-01T10:59:22;20.23;;;16.30;;
12556;SDS011;6344;49.932;8.308;2023-03-01T11:02:03;16.90;;;12.00;;
12556;SDS011;6344;49.932;8.308;2023-03-01T11:04:46;14.77;;;13.20;;
12556;SDS011;6344;49.932;8.308;2023-03-01T11:07:23;10.73;;;8.40;;
12556;SDS011;6344;49.932;8.308;2023-03-01T11:09:51;15.13;;;13.63;;
12556;SDS011;6344;49.932;8.308;2023-03-01T11:12:18;20.43;;;11.77;;
12556;SDS011;6344;49.932;8.308;2023-03-01T11:14:47;17.27;;;15.00;;
12556;SDS011;6344;49.932;8.308;2023-03-01T11:17:17;15.07;;;13.67;;
12556;SDS011;6344;49.932;8.308;2023-03-01T11:19:59;19.00;;;13.90;;
12556;SDS011;6344;49.932;8.308;2023-03-01T11:22:28;16.63;;;13.03;;
12556;SDS011;6344;49.932;8.308;2023-03-01T11:25:00;13.50;;;11.60;;
12556;SDS011;6344;49.932;8.308;2023-03-01T11:27:29;12.20;;;10.40;;
12556;SDS011;6344;49.932;8.308;2023-03-01T11:29:59;13.13;;;11.47;;
12556;SDS011;6344;49.932;8.308;2023-03-01T11:32:33;22.03;;;16.23;;
12556;SDS011;6344;49.932;8.308;2023-03-01T11:35:05;10.73;;;7.20;;
12556;SDS011;6344;49.932;8.308;2023-03-01T11:37:41;16.13;;;11.00;;
12556;SDS011;6344;49.932;8.308;2023-03-01T11:40:21;15.17;;;13.07;;
12556;SDS011;6344;49.932;8.308;2023-03-01T11:42:54;11.67;;;10.60;;
12556;SDS011;6344;49.932;8.308;2023-03-01T11:45:30;24.50;;;13.40;;
12556;SDS011;6344;49.932;8.308;2023-03-01T11:48:07;16.67;;;11.50;;
12556;SDS011;6344;49.932;8.308;2023-03-01T11:50:51;19.60;;;16.20;;
12556;SDS011;6344;49.932;8.308;2023-03-01T11:56:20;12.90;;;11.30;;
12556;SDS011;6344;49.932;8.308;2023-03-01T12:02:10;16.80;;;14.00;;
12556;SDS011;6344;49.932;8.308;2023-03-01T12:04:58;11.13;;;10.00;;
12556;SDS011;6344;49.932;8.308;2023-03-01T12:07:46;14.20;;;10.03;;
12556;SDS011;6344;49.932;8.308;2023-03-01T12:10:22;13.57;;;9.60;;
12556;SDS011;6344;49.932;8.308;2023-03-01T12:12:56;11.67;;;7.23;;
12556;SDS011;6344;49.932;8.308;2023-03-01T12:15:42;16.60;;;12.40;;
12556;SDS011;6344;49.932;8.308;2023-03-01T12:18:28;18.90;;;13.30;;
12556;SDS011;6344;49.932;8.308;2023-03-01T12:21:18;13.50;;;11.50;;
12556;SDS011;6344;49.932;8.308;2023-03-01T12:23:55;16.33;;;14.80;;
12556;SDS011;6344;49.932;8.308;2023-03-01T12:26:51;13.50;;;11.13;;
12556;SDS011;6344;49.932;8.308;2023-03-01T12:29:32;13.97;;;9.83;;
12556;SDS011;6344;49.932;8.308;2023-03-01T12:32:15;23.10;;;13.30;;
12556;SDS011;6344;49.932;8.308;2023-03-01T12:35:06;10.73;;;9.73;;
12556;SDS011;6344;49.932;8.308;2023-03-01T12:38:05;14.03;;;10.33;;
12556;SDS011;6344;49.932;8.308;2023-03-01T12:40:44;11.43;;;9.97;;
12556;SDS011;6344;49.932;8.308;2023-03-01T12:43:30;23.03;;;10.70;;
12556;SDS011;6344;49.932;8.308;2023-03-01T12:46:13;13.27;;;11.93;;
12556;SDS011;6344;49.932;8.308;2023-03-01T12:48:53;16.10;;;11.80;;
12556;SDS011;6344;49.932;8.308;2023-03-01T12:51:38;14.40;;;12.87;;
12556;SDS011;6344;49.932;8.308;2023-03-01T12:54:11;12.60;;;9.97;;
12556;SDS011;6344;49.932;8.308;2023-03-01T12:56:41;11.67;;;9.37;;
12556;SDS011;6344;49.932;8.308;2023-03-01T12:59:17;13.73;;;12.33;;
12556;SDS011;6344;49.932;8.308;2023-03-01T13:01:51;14.63;;;10.03;;
12556;SDS011;6344;49.932;8.308;2023-03-01T13:04:31;16.10;;;13.57;;
12556;SDS011;6344;49.932;8.308;2023-03-01T13:07:11;9.57;;;7.60;;
12556;SDS011;6344;49.932;8.308;2023-03-01T13:09:47;11.83;;;10.53;;
12556;SDS011;6344;49.932;8.308;2023-03-01T13:12:41;12.37;;;9.17;;
12556;SDS011;6344;49.932;8.308;2023-03-01T13:15:27;12.70;;;9.00;;
12556;SDS011;6344;49.932;8.308;2023-03-01T13:17:57;11.37;;;9.90;;
12556;SDS011;6344;49.932;8.308;2023-03-01T13:20:26;12.60;;;11.20;;
12556;SDS011;6344;49.932;8.308;2023-03-01T13:23:01;12.90;;;10.80;;
12556;SDS011;6344;49.932;8.308;2023-03-01T13:25:29;10.50;;;8.67;;
12556;SDS011;6344;49.932;8.308;2023-03-01T13:31:02;13.53;;;12.07;;
12556;SDS011;6344;49.932;8.308;2023-03-01T13:33:38;12.33;;;10.53;;
12556;SDS011;6344;49.932;8.308;2023-03-01T13:36:07;13.13;;;11.73;;
12556;SDS011;6344;49.932;8.308;2023-03-01T13:38:39;11.10;;;8.87;;
12556;SDS011;6344;49.932;8.308;2023-03-01T13:41:12;10.67;;;9.07;;
12556;SDS011;6344;49.932;8.308;2023-03-01T13:43:40;11.00;;;8.80;;
12556;SDS011;6344;49.932;8.308;2023-03-01T13:46:09;12.93;;;10.03;;
12556;SDS011;6344;49.932;8.308;2023-03-01T13:48:42;12.10;;;9.70;;
12556;SDS011;6344;49.932;8.308;2023-03-01T13:51:11;12.73;;;11.53;;
12556;SDS011;6344;49.932;8.308;2023-03-01T13:53:39;10.23;;;9.17;;
12556;SDS011;6344;49.932;8.308;2023-03-01T13:56:09;10.87;;;9.20;;
12556;SDS011;6344;49.932;8.308;2023-03-01T13:58:46;13.93;;;10.70;;
12556;SDS011;6344;49.932;8.308;2023-03-01T14:01:21;10.37;;;7.70;;
12556;SDS011;6344;49.932;8.308;2023-03-01T14:03:53;12.23;;;11.03;;
12556;SDS011;6344;49.932;8.308;2023-03-01T14:06:22;11.77;;;7.50;;
12556;SDS011;6344;49.932;8.308;2023-03-01T14:08:51;12.50;;;8.17;;
12556;SDS011;6344;49.932;8.308;2023-03-01T14:11:37;12.57;;;8.77;;
12556;SDS011;6344;49.932;8.308;2023-03-01T14:14:30;10.33;;;8.57;;
12556;SDS011;6344;49.932;8.308;2023-03-01T14:17:14;11.23;;;10.13;;
12556;SDS011;6344;49.932;8.308;2023-03-01T14:19:56;7.70;;;7.00;;
12556;SDS011;6344;49.932;8.308;2023-03-01T14:22:25;11.87;;;10.80;;
12556;SDS011;6344;49.932;8.308;2023-03-01T14:24:54;10.67;;;9.57;;
12556;SDS011;6344;49.932;8.308;2023-03-01T14:27:22;12.90;;;11.57;;
12556;SDS011;6344;49.932;8.308;2023-03-01T14:29:55;8.63;;;7.77;;
12556;SDS011;6344;49.932;8.308;2023-03-01T14:32:24;10.10;;;7.47;;
12556;SDS011;6344;49.932;8.308;2023-03-01T14:34:52;11.30;;;9.40;;
12556;SDS011;6344;49.932;8.308;2023-03-01T14:37:22;12.90;;;9.80;;
12556;SDS011;6344;49.932;8.308;2023-03-01T14:39:51;9.10;;;6.97;;
12556;SDS011;6344;49.932;8.308;2023-03-01T14:42:19;8.93;;;7.70;;
12556;SDS011;6344;49.932;8.308;2023-03-01T14:44:48;9.40;;;8.47;;
12556;SDS011;6344;49.932;8.308;2023-03-01T14:47:19;7.10;;;6.20;;
12556;SDS011;6344;49.932;8.308;2023-03-01T14:49:53;12.43;;;10.87;;
12556;SDS011;6344;49.932;8.308;2023-03-01T14:52:27;11.83;;;9.70;;
12556;SDS011;6344;49.932;8.308;2023-03-01T14:55:01;11.17;;;10.00;;
12556;SDS011;6344;49.932;8.308;2023-03-01T14:57:31;9.67;;;7.40;;
12556;SDS011;6344;49.932;8.308;2023-03-01T14:59:58;10.07;;;9.07;;
12556;SDS011;6344;49.932;8.308;2023-03-01T15:02:29;10.80;;;8.00;;
12556;SDS011;6344;49.932;8.308;2023-03-01T15:04:57;16.10;;;12.30;;
12556;SDS011;6344;49.932;8.308;2023-03-01T15:07:29;14.13;;;9.17;;
12556;SDS011;6344;49.932;8.308;2023-03-01T15:09:58;9.80;;;6.97;;
12556;SDS011;6344;49.932;8.308;2023-03-01T15:12:33;12.07;;;8.80;;